Station: ELLX - 12/07/2020 17:50Z (il y a 20 minutes)
ELLX 121750Z 05008KT CAVOK 22/05 Q1025 NOSIG
Vent du 050º - 8 kt
Visibilité > 10 km et plafond haut ou pas de nuages significatifs
Température: +22ºC - Point de rosée: +05ºC - QNH: 1025 hPa
Pas de changement significatif prévu dans les 2 heures qui suivent l'observation